sensor_id;sensor_type;location;lat;lon;timestamp;temperature;humidity
51867;DHT22;52862;52.504;13.480;2023-06-22T00:00:50;22.40;99.90
51867;DHT22;52862;52.504;13.480;2023-06-22T00:03:18;22.20;99.90
51867;DHT22;52862;52.504;13.480;2023-06-22T00:05:45;22.20;99.90
51867;DHT22;52862;52.504;13.480;2023-06-22T00:08:12;22.10;99.90
51867;DHT22;52862;52.504;13.480;2023-06-22T00:10:40;22.10;99.90
51867;DHT22;52862;52.504;13.480;2023-06-22T00:13:08;22.10;99.90
51867;DHT22;52862;52.504;13.480;2023-06-22T00:15:36;22.10;99.90
51867;DHT22;52862;52.504;13.480;2023-06-22T00:18:04;22.10;99.90
51867;DHT22;52862;52.504;13.480;2023-06-22T00:20:31;22.10;99.90
51867;DHT22;52862;52.504;13.480;2023-06-22T00:22:59;22.10;99.90
51867;DHT22;52862;52.504;13.480;2023-06-22T00:25:26;22.00;99.90
51867;DHT22;52862;52.504;13.480;2023-06-22T00:27:53;22.00;99.90
51867;DHT22;52862;52.504;13.480;2023-06-22T00:30:20;22.00;99.90
51867;DHT22;52862;52.504;13.480;2023-06-22T00:32:47;22.00;99.90
51867;DHT22;52862;52.504;13.480;2023-06-22T00:35:14;22.00;99.90
51867;DHT22;52862;52.504;13.480;2023-06-22T00:37:41;22.00;99.90
51867;DHT22;52862;52.504;13.480;2023-06-22T00:40:09;22.00;99.90
51867;DHT22;52862;52.504;13.480;2023-06-22T00:42:37;21.90;99.90
51867;DHT22;52862;52.504;13.480;2023-06-22T00:45:05;21.90;99.90
51867;DHT22;52862;52.504;13.480;2023-06-22T00:47:34;21.80;99.90
51867;DHT22;52862;52.504;13.480;2023-06-22T00:50:02;21.70;99.90
51867;DHT22;52862;52.504;13.480;2023-06-22T00:52:30;21.80;99.90
51867;DHT22;52862;52.504;13.480;2023-06-22T00:54:59;21.70;99.90
51867;DHT22;52862;52.504;13.480;2023-06-22T00:57:28;21.70;99.90
51867;DHT22;52862;52.504;13.480;2023-06-22T00:59:55;21.70;99.90
51867;DHT22;52862;52.504;13.480;2023-06-22T01:02:22;21.60;99.90
51867;DHT22;52862;52.504;13.480;2023-06-22T01:04:49;21.60;99.90
51867;DHT22;52862;52.504;13.480;2023-06-22T01:07:23;21.60;99.90
51867;DHT22;52862;52.504;13.480;2023-06-22T01:09:57;21.70;99.90
51867;DHT22;52862;52.504;13.480;2023-06-22T01:12:27;21.50;99.90
51867;DHT22;52862;52.504;13.480;2023-06-22T01:15:04;21.50;99.90
51867;DHT22;52862;52.504;13.480;2023-06-22T01:17:31;21.60;99.90
51867;DHT22;52862;52.504;13.480;2023-06-22T01:20:00;21.60;99.90
51867;DHT22;52862;52.504;13.480;2023-06-22T01:22:35;21.60;99.90
51867;DHT22;52862;52.504;13.480;2023-06-22T01:25:10;21.50;99.90
51867;DHT22;52862;52.504;13.480;2023-06-22T01:27:46;21.50;99.90
51867;DHT22;52862;52.504;13.480;2023-06-22T01:30:16;21.50;99.90
51867;DHT22;52862;52.504;13.480;2023-06-22T01:32:43;21.50;99.90
51867;DHT22;52862;52.504;13.480;2023-06-22T01:35:10;21.50;99.90
51867;DHT22;52862;52.504;13.480;2023-06-22T01:37:38;21.50;99.90
51867;DHT22;52862;52.504;13.480;2023-06-22T01:40:07;21.40;99.90
51867;DHT22;52862;52.504;13.480;2023-06-22T01:42:35;21.40;99.90
51867;DHT22;52862;52.504;13.480;2023-06-22T01:45:03;21.40;99.90
51867;DHT22;52862;52.504;13.480;2023-06-22T01:47:32;21.40;99.90
51867;DHT22;52862;52.504;13.480;2023-06-22T01:49:59;21.40;99.90
51867;DHT22;52862;52.504;13.480;2023-06-22T01:52:26;21.40;99.90
51867;DHT22;52862;52.504;13.480;2023-06-22T01:54:52;21.30;99.90
51867;DHT22;52862;52.504;13.480;2023-06-22T01:57:19;21.30;99.90
51867;DHT22;52862;52.504;13.480;2023-06-22T01:59:51;21.30;99.90
51867;DHT22;52862;52.504;13.480;2023-06-22T02:02:20;21.30;99.90
51867;DHT22;52862;52.504;13.480;2023-06-22T02:04:56;21.30;99.90
51867;DHT22;52862;52.504;13.480;2023-06-22T02:07:24;21.30;99.90
51867;DHT22;52862;52.504;13.480;2023-06-22T02:09:53;21.30;99.90
51867;DHT22;52862;52.504;13.480;2023-06-22T02:12:23;21.20;99.90
51867;DHT22;52862;52.504;13.480;2023-06-22T02:14:51;21.20;99.90
51867;DHT22;52862;52.504;13.480;2023-06-22T02:17:18;21.20;99.90
51867;DHT22;52862;52.504;13.480;2023-06-22T02:19:45;21.10;99.90
51867;DHT22;52862;52.504;13.480;2023-06-22T02:22:13;21.10;99.90
51867;DHT22;52862;52.504;13.480;2023-06-22T02:24:40;21.10;99.90
51867;DHT22;52862;52.504;13.480;2023-06-22T02:27:07;21.00;99.90
51867;DHT22;52862;52.504;13.480;2023-06-22T02:29:34;21.00;99.90
51867;DHT22;52862;52.504;13.480;2023-06-22T02:32:00;21.00;99.90
51867;DHT22;52862;52.504;13.480;2023-06-22T02:34:29;21.00;99.90
51867;DHT22;52862;52.504;13.480;2023-06-22T02:36:56;22.60;99.90
51867;DHT22;52862;52.504;13.480;2023-06-22T02:39:24;21.00;99.90
51867;DHT22;52862;52.504;13.480;2023-06-22T02:41:51;21.00;99.90
51867;DHT22;52862;52.504;13.480;2023-06-22T02:44:19;21.10;99.90
51867;DHT22;52862;52.504;13.480;2023-06-22T02:46:46;21.10;99.90
51867;DHT22;52862;52.504;13.480;2023-06-22T02:49:13;21.20;99.90
51867;DHT22;52862;52.504;13.480;2023-06-22T02:51:46;21.20;99.90
51867;DHT22;52862;52.504;13.480;2023-06-22T02:54:13;21.20;99.90
51867;DHT22;52862;52.504;13.480;2023-06-22T02:56:41;21.30;99.90
51867;DHT22;52862;52.504;13.480;2023-06-22T02:59:10;21.30;99.90
51867;DHT22;52862;52.504;13.480;2023-06-22T03:01:37;21.30;99.90
51867;DHT22;52862;52.504;13.480;2023-06-22T03:04:06;21.30;99.90
51867;DHT22;52862;52.504;13.480;2023-06-22T03:06:33;21.30;99.90
51867;DHT22;52862;52.504;13.480;2023-06-22T03:09:01;21.40;99.90
51867;DHT22;52862;52.504;13.480;2023-06-22T03:11:30;21.40;99.90
51867;DHT22;52862;52.504;13.480;2023-06-22T03:13:57;21.40;99.90
51867;DHT22;52862;52.504;13.480;2023-06-22T03:16:24;21.40;99.90
51867;DHT22;52862;52.504;13.480;2023-06-22T03:18:51;21.40;99.90
51867;DHT22;52862;52.504;13.480;2023-06-22T03:21:19;21.40;99.90
51867;DHT22;52862;52.504;13.480;2023-06-22T03:23:46;21.40;99.90
51867;DHT22;52862;52.504;13.480;2023-06-22T03:26:13;21.40;99.90
51867;DHT22;52862;52.504;13.480;2023-06-22T03:28:39;21.40;99.90
51867;DHT22;52862;52.504;13.480;2023-06-22T03:31:07;21.50;99.90
51867;DHT22;52862;52.504;13.480;2023-06-22T03:33:34;21.40;99.90
51867;DHT22;52862;52.504;13.480;2023-06-22T03:36:01;21.40;99.90
51867;DHT22;52862;52.504;13.480;2023-06-22T03:38:29;21.40;99.90
51867;DHT22;52862;52.504;13.480;2023-06-22T03:40:55;21.40;99.90
51867;DHT22;52862;52.504;13.480;2023-06-22T03:43:23;21.50;99.90
51867;DHT22;52862;52.504;13.480;2023-06-22T03:45:49;21.50;99.90
51867;DHT22;52862;52.504;13.480;2023-06-22T03:48:17;21.50;99.90
51867;DHT22;52862;52.504;13.480;2023-06-22T03:50:44;21.50;99.90
51867;DHT22;52862;52.504;13.480;2023-06-22T03:53:10;21.50;99.90
51867;DHT22;52862;52.504;13.480;2023-06-22T03:55:40;21.60;99.90
51867;DHT22;52862;52.504;13.480;2023-06-22T03:58:07;21.60;99.90
51867;DHT22;52862;52.504;13.480;2023-06-22T04:00:35;21.60;99.90
51867;DHT22;52862;52.504;13.480;2023-06-22T04:03:02;21.60;99.90
51867;DHT22;52862;52.504;13.480;2023-06-22T04:05:30;21.70;99.90
51867;DHT22;52862;52.504;13.480;2023-06-22T04:07:56;21.70;99.90
51867;DHT22;52862;52.504;13.480;2023-06-22T04:10:23;21.70;99.90
51867;DHT22;52862;52.504;13.480;2023-06-22T04:12:50;21.80;99.90
51867;DHT22;52862;52.504;13.480;2023-06-22T04:15:16;21.80;99.90
51867;DHT22;52862;52.504;13.480;2023-06-22T04:17:43;21.80;99.90
51867;DHT22;52862;52.504;13.480;2023-06-22T04:20:10;21.90;99.90
51867;DHT22;52862;52.504;13.480;2023-06-22T04:22:37;21.90;99.90
51867;DHT22;52862;52.504;13.480;2023-06-22T04:25:05;21.90;99.90
51867;DHT22;52862;52.504;13.480;2023-06-22T04:27:33;22.00;99.90
51867;DHT22;52862;52.504;13.480;2023-06-22T04:30:04;22.00;99.90
51867;DHT22;52862;52.504;13.480;2023-06-22T04:32:31;21.90;99.90
51867;DHT22;52862;52.504;13.480;2023-06-22T04:34:57;22.10;99.90
51867;DHT22;52862;52.504;13.480;2023-06-22T04:37:26;22.10;99.90
51867;DHT22;52862;52.504;13.480;2023-06-22T04:39:53;22.00;99.90
51867;DHT22;52862;52.504;13.480;2023-06-22T04:42:20;22.10;99.90
51867;DHT22;52862;52.504;13.480;2023-06-22T04:44:47;22.20;99.90
51867;DHT22;52862;52.504;13.480;2023-06-22T04:47:13;22.30;99.90
51867;DHT22;52862;52.504;13.480;2023-06-22T04:49:40;22.40;99.90
51867;DHT22;52862;52.504;13.480;2023-06-22T04:52:11;22.50;99.90
51867;DHT22;52862;52.504;13.480;2023-06-22T04:54:39;22.60;99.90
51867;DHT22;52862;52.504;13.480;2023-06-22T04:57:07;22.60;99.90
51867;DHT22;52862;52.504;13.480;2023-06-22T04:59:37;22.70;99.90
51867;DHT22;52862;52.504;13.480;2023-06-22T05:02:05;22.80;99.90
51867;DHT22;52862;52.504;13.480;2023-06-22T05:04:32;22.90;99.90
51867;DHT22;52862;52.504;13.480;2023-06-22T05:07:00;23.10;99.90
51867;DHT22;52862;52.504;13.480;2023-06-22T05:09:27;23.10;99.90
51867;DHT22;52862;52.504;13.480;2023-06-22T05:11:54;23.10;99.90
51867;DHT22;52862;52.504;13.480;2023-06-22T05:14:23;23.20;99.90
51867;DHT22;52862;52.504;13.480;2023-06-22T05:16:49;23.40;99.90
51867;DHT22;52862;52.504;13.480;2023-06-22T05:19:18;23.50;99.90
51867;DHT22;52862;52.504;13.480;2023-06-22T05:21:44;23.60;99.90
51867;DHT22;52862;52.504;13.480;2023-06-22T05:24:11;23.70;99.90
51867;DHT22;52862;52.504;13.480;2023-06-22T05:26:38;23.70;99.90
51867;DHT22;52862;52.504;13.480;2023-06-22T05:29:05;23.80;99.90
51867;DHT22;52862;52.504;13.480;2023-06-22T05:31:33;23.80;99.90
51867;DHT22;52862;52.504;13.480;2023-06-22T05:34:00;23.80;99.90
51867;DHT22;52862;52.504;13.480;2023-06-22T05:36:26;23.80;99.90
51867;DHT22;52862;52.504;13.480;2023-06-22T05:38:53;23.80;99.90
51867;DHT22;52862;52.504;13.480;2023-06-22T05:41:20;23.80;99.90
51867;DHT22;52862;52.504;13.480;2023-06-22T05:43:47;23.80;99.90
51867;DHT22;52862;52.504;13.480;2023-06-22T05:46:13;23.90;99.90
51867;DHT22;52862;52.504;13.480;2023-06-22T05:48:41;23.90;99.90
51867;DHT22;52862;52.504;13.480;2023-06-22T05:51:09;23.90;99.90
51867;DHT22;52862;52.504;13.480;2023-06-22T05:53:35;23.90;99.90
51867;DHT22;52862;52.504;13.480;2023-06-22T05:56:02;24.00;99.90
51867;DHT22;52862;52.504;13.480;2023-06-22T05:58:30;24.00;99.90
51867;DHT22;52862;52.504;13.480;2023-06-22T06:00:56;24.10;99.90
51867;DHT22;52862;52.504;13.480;2023-06-22T06:03:23;23.90;99.90
51867;DHT22;52862;52.504;13.480;2023-06-22T06:05:51;23.90;99.90
51867;DHT22;52862;52.504;13.480;2023-06-22T06:08:17;23.90;99.90
51867;DHT22;52862;52.504;13.480;2023-06-22T06:10:44;23.90;99.90
51867;DHT22;52862;52.504;13.480;2023-06-22T06:13:10;23.90;99.90
51867;DHT22;52862;52.504;13.480;2023-06-22T06:15:37;24.10;99.90
51867;DHT22;52862;52.504;13.480;2023-06-22T06:18:04;24.10;99.90
51867;DHT22;52862;52.504;13.480;2023-06-22T06:20:32;24.50;99.90
51867;DHT22;52862;52.504;13.480;2023-06-22T06:23:00;24.70;99.90
51867;DHT22;52862;52.504;13.480;2023-06-22T06:25:27;24.80;99.90
51867;DHT22;52862;52.504;13.480;2023-06-22T06:27:54;24.80;99.90
51867;DHT22;52862;52.504;13.480;2023-06-22T06:30:21;24.80;99.90
51867;DHT22;52862;52.504;13.480;2023-06-22T06:32:49;24.90;99.90
51867;DHT22;52862;52.504;13.480;2023-06-22T06:35:16;25.00;99.90
51867;DHT22;52862;52.504;13.480;2023-06-22T06:37:47;25.20;99.90
51867;DHT22;52862;52.504;13.480;2023-06-22T06:40:16;25.20;99.90
51867;DHT22;52862;52.504;13.480;2023-06-22T06:42:44;25.40;99.90
51867;DHT22;52862;52.504;13.480;2023-06-22T06:45:11;25.40;99.90
51867;DHT22;52862;52.504;13.480;2023-06-22T06:47:38;25.60;99.90
51867;DHT22;52862;52.504;13.480;2023-06-22T06:50:06;25.80;99.90
51867;DHT22;52862;52.504;13.480;2023-06-22T06:52:33;25.90;99.90
51867;DHT22;52862;52.504;13.480;2023-06-22T06:55:04;25.90;99.90
51867;DHT22;52862;52.504;13.480;2023-06-22T06:57:34;26.00;99.90
51867;DHT22;52862;52.504;13.480;2023-06-22T07:00:01;26.10;99.90
51867;DHT22;52862;52.504;13.480;2023-06-22T07:02:28;26.00;99.90
51867;DHT22;52862;52.504;13.480;2023-06-22T07:04:55;26.10;99.90
51867;DHT22;52862;52.504;13.480;2023-06-22T07:07:22;26.00;99.90
51867;DHT22;52862;52.504;13.480;2023-06-22T07:09:48;25.90;99.90
51867;DHT22;52862;52.504;13.480;2023-06-22T07:12:15;25.70;99.90
51867;DHT22;52862;52.504;13.480;2023-06-22T07:14:42;25.40;99.90
51867;DHT22;52862;52.504;13.480;2023-06-22T07:17:09;25.30;99.90
51867;DHT22;52862;52.504;13.480;2023-06-22T07:19:36;25.30;99.90
51867;DHT22;52862;52.504;13.480;2023-06-22T07:22:03;25.50;99.90
51867;DHT22;52862;52.504;13.480;2023-06-22T07:24:29;25.70;99.90
51867;DHT22;52862;52.504;13.480;2023-06-22T07:26:56;26.30;99.90
51867;DHT22;52862;52.504;13.480;2023-06-22T07:29:25;26.60;99.90
51867;DHT22;52862;52.504;13.480;2023-06-22T07:31:53;27.00;99.90
51867;DHT22;52862;52.504;13.480;2023-06-22T07:34:22;27.30;99.90
51867;DHT22;52862;52.504;13.480;2023-06-22T07:36:49;27.10;99.90
51867;DHT22;52862;52.504;13.480;2023-06-22T07:39:15;27.60;99.90
51867;DHT22;52862;52.504;13.480;2023-06-22T07:41:42;27.40;99.90
51867;DHT22;52862;52.504;13.480;2023-06-22T07:44:09;27.40;99.90
51867;DHT22;52862;52.504;13.480;2023-06-22T07:46:35;27.10;99.90
51867;DHT22;52862;52.504;13.480;2023-06-22T07:49:05;27.10;99.90
51867;DHT22;52862;52.504;13.480;2023-06-22T07:51:34;26.90;99.90
51867;DHT22;52862;52.504;13.480;2023-06-22T07:54:01;27.00;99.90
51867;DHT22;52862;52.504;13.480;2023-06-22T07:56:27;27.00;99.90
51867;DHT22;52862;52.504;13.480;2023-06-22T07:58:54;27.00;99.90
51867;DHT22;52862;52.504;13.480;2023-06-22T08:01:24;27.20;99.90
51867;DHT22;52862;52.504;13.480;2023-06-22T08:03:51;27.40;99.90
51867;DHT22;52862;52.504;13.480;2023-06-22T08:06:18;27.40;99.90
51867;DHT22;52862;52.504;13.480;2023-06-22T08:08:45;27.50;99.90
51867;DHT22;52862;52.504;13.480;2023-06-22T08:11:14;27.50;99.90
51867;DHT22;52862;52.504;13.480;2023-06-22T08:13:40;27.30;99.90
51867;DHT22;52862;52.504;13.480;2023-06-22T08:16:07;27.20;99.90
51867;DHT22;52862;52.504;13.480;2023-06-22T08:18:33;27.00;99.90
51867;DHT22;52862;52.504;13.480;2023-06-22T08:21:00;27.10;99.90
51867;DHT22;52862;52.504;13.480;2023-06-22T08:23:30;27.20;99.90
51867;DHT22;52862;52.504;13.480;2023-06-22T08:25:57;27.40;99.90
51867;DHT22;52862;52.504;13.480;2023-06-22T08:28:24;27.60;99.60
51867;DHT22;52862;52.504;13.480;2023-06-22T08:30:50;27.70;99.90
51867;DHT22;52862;52.504;13.480;2023-06-22T08:33:17;27.80;99.90
51867;DHT22;52862;52.504;13.480;2023-06-22T08:35:54;27.80;99.90
51867;DHT22;52862;52.504;13.480;2023-06-22T08:38:21;27.70;99.90
51867;DHT22;52862;52.504;13.480;2023-06-22T08:40:48;27.50;99.90
51867;DHT22;52862;52.504;13.480;2023-06-22T08:43:15;27.70;99.90
51867;DHT22;52862;52.504;13.480;2023-06-22T08:45:42;27.80;99.90
51867;DHT22;52862;52.504;13.480;2023-06-22T08:48:10;28.00;99.90
51867;DHT22;52862;52.504;13.480;2023-06-22T08:50:37;28.10;99.90
51867;DHT22;52862;52.504;13.480;2023-06-22T08:53:06;28.10;99.90
51867;DHT22;52862;52.504;13.480;2023-06-22T08:55:34;28.20;99.90
51867;DHT22;52862;52.504;13.480;2023-06-22T08:58:02;28.20;99.70
51867;DHT22;52862;52.504;13.480;2023-06-22T09:00:30;28.10;99.90
51867;DHT22;52862;52.504;13.480;2023-06-22T09:02:59;28.50;99.90
51867;DHT22;52862;52.504;13.480;2023-06-22T09:05:26;28.50;99.90
51867;DHT22;52862;52.504;13.480;2023-06-22T09:07:55;28.60;99.90
51867;DHT22;52862;52.504;13.480;2023-06-22T09:10:23;28.90;99.80
51867;DHT22;52862;52.504;13.480;2023-06-22T09:12:50;29.10;99.80
51867;DHT22;52862;52.504;13.480;2023-06-22T09:15:18;29.30;98.60
51867;DHT22;52862;52.504;13.480;2023-06-22T09:17:45;29.50;98.40
51867;DHT22;52862;52.504;13.480;2023-06-22T09:20:13;29.40;98.10
51867;DHT22;52862;52.504;13.480;2023-06-22T09:22:41;29.30;97.70
51867;DHT22;52862;52.504;13.480;2023-06-22T09:25:08;29.30;97.80
51867;DHT22;52862;52.504;13.480;2023-06-22T09:27:36;29.20;97.40
51867;DHT22;52862;52.504;13.480;2023-06-22T09:30:03;29.00;97.10
51867;DHT22;52862;52.504;13.480;2023-06-22T09:32:31;29.00;96.90
51867;DHT22;52862;52.504;13.480;2023-06-22T09:34:58;29.20;97.40
51867;DHT22;52862;52.504;13.480;2023-06-22T09:37:25;29.00;97.60
51867;DHT22;52862;52.504;13.480;2023-06-22T09:39:52;29.20;97.80
51867;DHT22;52862;52.504;13.480;2023-06-22T09:42:19;29.00;96.50
51867;DHT22;52862;52.504;13.480;2023-06-22T09:44:47;28.90;96.90
51867;DHT22;52862;52.504;13.480;2023-06-22T09:47:14;28.90;97.00
51867;DHT22;52862;52.504;13.480;2023-06-22T09:49:42;29.00;97.10
51867;DHT22;52862;52.504;13.480;2023-06-22T09:52:15;29.10;97.70
51867;DHT22;52862;52.504;13.480;2023-06-22T09:54:42;29.30;97.40
51867;DHT22;52862;52.504;13.480;2023-06-22T09:57:09;29.10;96.80
51867;DHT22;52862;52.504;13.480;2023-06-22T09:59:37;29.20;96.90
51867;DHT22;52862;52.504;13.480;2023-06-22T10:02:06;29.30;96.90
51867;DHT22;52862;52.504;13.480;2023-06-22T10:04:34;29.30;96.60
51867;DHT22;52862;52.504;13.480;2023-06-22T10:07:02;29.30;96.00
51867;DHT22;52862;52.504;13.480;2023-06-22T10:09:29;29.20;97.10
51867;DHT22;52862;52.504;13.480;2023-06-22T10:11:56;29.00;97.10
51867;DHT22;52862;52.504;13.480;2023-06-22T10:14:23;28.70;97.30
51867;DHT22;52862;52.504;13.480;2023-06-22T10:16:52;28.80;97.50
51867;DHT22;52862;52.504;13.480;2023-06-22T10:19:19;28.90;97.60
51867;DHT22;52862;52.504;13.480;2023-06-22T10:21:46;28.90;96.90
51867;DHT22;52862;52.504;13.480;2023-06-22T10:24:14;29.10;97.40
51867;DHT22;52862;52.504;13.480;2023-06-22T10:26:41;29.00;96.90
51867;DHT22;52862;52.504;13.480;2023-06-22T10:29:09;29.10;97.20
51867;DHT22;52862;52.504;13.480;2023-06-22T10:31:43;29.00;97.30
51867;DHT22;52862;52.504;13.480;2023-06-22T10:34:10;29.20;96.90
51867;DHT22;52862;52.504;13.480;2023-06-22T10:36:38;29.40;96.20
51867;DHT22;52862;52.504;13.480;2023-06-22T10:39:05;29.40;96.50
51867;DHT22;52862;52.504;13.480;2023-06-22T10:41:34;29.60;96.40
51867;DHT22;52862;52.504;13.480;2023-06-22T10:44:02;29.60;95.90
51867;DHT22;52862;52.504;13.480;2023-06-22T10:46:29;29.50;96.50
51867;DHT22;52862;52.504;13.480;2023-06-22T10:48:56;29.30;96.10
51867;DHT22;52862;52.504;13.480;2023-06-22T10:51:25;29.20;95.50
51867;DHT22;52862;52.504;13.480;2023-06-22T10:53:52;29.40;96.10
51867;DHT22;52862;52.504;13.480;2023-06-22T10:56:19;29.40;95.50
51867;DHT22;52862;52.504;13.480;2023-06-22T10:58:46;29.40;94.90
51867;DHT22;52862;52.504;13.480;2023-06-22T11:01:14;29.60;95.10
51867;DHT22;52862;52.504;13.480;2023-06-22T11:04:00;29.90;95.20
51867;DHT22;52862;52.504;13.480;2023-06-22T11:06:40;30.00;94.20
51867;DHT22;52862;52.504;13.480;2023-06-22T11:09:19;30.20;94.00
51867;DHT22;52862;52.504;13.480;2023-06-22T11:11:56;30.40;94.90
51867;DHT22;52862;52.504;13.480;2023-06-22T11:14:25;30.20;94.00
51867;DHT22;52862;52.504;13.480;2023-06-22T11:16:55;30.20;94.00
51867;DHT22;52862;52.504;13.480;2023-06-22T11:19:23;30.40;93.90
51867;DHT22;52862;52.504;13.480;2023-06-22T11:21:51;30.60;93.70
51867;DHT22;52862;52.504;13.480;2023-06-22T11:24:18;30.60;93.40
51867;DHT22;52862;52.504;13.480;2023-06-22T11:26:45;30.30;93.20
51867;DHT22;52862;52.504;13.480;2023-06-22T11:29:12;30.10;92.10
51867;DHT22;52862;52.504;13.480;2023-06-22T11:31:54;30.30;93.20
51867;DHT22;52862;52.504;13.480;2023-06-22T11:34:21;30.50;93.00
51867;DHT22;52862;52.504;13.480;2023-06-22T11:36:48;30.80;92.70
51867;DHT22;52862;52.504;13.480;2023-06-22T11:39:15;30.80;92.00
51867;DHT22;52862;52.504;13.480;2023-06-22T11:41:43;31.10;92.20
51867;DHT22;52862;52.504;13.480;2023-06-22T11:44:10;31.20;91.00
51867;DHT22;52862;52.504;13.480;2023-06-22T11:46:37;31.20;91.40
51867;DHT22;52862;52.504;13.480;2023-06-22T11:49:04;31.20;90.50
51867;DHT22;52862;52.504;13.480;2023-06-22T11:51:31;31.30;90.80
51867;DHT22;52862;52.504;13.480;2023-06-22T11:53:59;31.40;91.10
51867;DHT22;52862;52.504;13.480;2023-06-22T11:56:26;31.60;90.60
51867;DHT22;52862;52.504;13.480;2023-06-22T11:58:54;31.70;90.10
51867;DHT22;52862;52.504;13.480;2023-06-22T12:01:21;31.50;89.80
51867;DHT22;52862;52.504;13.480;2023-06-22T12:03:48;31.70;91.20
51867;DHT22;52862;52.504;13.480;2023-06-22T12:06:17;32.10;90.30
51867;DHT22;52862;52.504;13.480;2023-06-22T12:08:44;32.50;89.90
51867;DHT22;52862;52.504;13.480;2023-06-22T12:11:11;32.80;89.30
51867;DHT22;52862;52.504;13.480;2023-06-22T12:13:38;33.00;86.60
51867;DHT22;52862;52.504;13.480;2023-06-22T12:16:05;33.00;86.20
51867;DHT22;52862;52.504;13.480;2023-06-22T12:18:33;32.50;86.70
51867;DHT22;52862;52.504;13.480;2023-06-22T12:21:00;32.60;87.20
51867;DHT22;52862;52.504;13.480;2023-06-22T12:23:33;32.70;84.90
51867;DHT22;52862;52.504;13.480;2023-06-22T12:26:21;32.90;84.20
51867;DHT22;52862;52.504;13.480;2023-06-22T12:28:48;33.30;84.50
51867;DHT22;52862;52.504;13.480;2023-06-22T12:31:17;33.30;83.30
51867;DHT22;52862;52.504;13.480;2023-06-22T12:33:43;32.90;86.50
51867;DHT22;52862;52.504;13.480;2023-06-22T12:36:11;32.50;86.20
51867;DHT22;52862;52.504;13.480;2023-06-22T12:38:39;32.00;86.10
51867;DHT22;52862;52.504;13.480;2023-06-22T12:41:06;32.30;86.00
51867;DHT22;52862;52.504;13.480;2023-06-22T12:43:32;32.90;85.10
51867;DHT22;52862;52.504;13.480;2023-06-22T12:45:59;32.90;83.80
51867;DHT22;52862;52.504;13.480;2023-06-22T12:48:27;33.20;84.20
51867;DHT22;52862;52.504;13.480;2023-06-22T12:50:54;33.70;83.90
51867;DHT22;52862;52.504;13.480;2023-06-22T12:53:22;33.90;82.70
51867;DHT22;52862;52.504;13.480;2023-06-22T12:55:50;33.70;82.00
51867;DHT22;52862;52.504;13.480;2023-06-22T12:58:17;33.60;83.90
51867;DHT22;52862;52.504;13.480;2023-06-22T13:00:44;33.60;83.00
51867;DHT22;52862;52.504;13.480;2023-06-22T13:03:11;33.70;82.30
51867;DHT22;52862;52.504;13.480;2023-06-22T13:05:38;33.60;84.00
51867;DHT22;52862;52.504;13.480;2023-06-22T13:08:06;33.60;83.50
51867;DHT22;52862;52.504;13.480;2023-06-22T13:10:32;33.60;82.70
51867;DHT22;52862;52.504;13.480;2023-06-22T13:13:00;33.30;83.00
51867;DHT22;52862;52.504;13.480;2023-06-22T13:15:28;33.70;82.10
51867;DHT22;52862;52.504;13.480;2023-06-22T13:17:56;33.90;81.50
51867;DHT22;52862;52.504;13.480;2023-06-22T13:20:23;34.10;82.90
51867;DHT22;52862;52.504;13.480;2023-06-22T13:22:50;34.10;81.80
51867;DHT22;52862;52.504;13.480;2023-06-22T13:25:16;34.30;82.30
51867;DHT22;52862;52.504;13.480;2023-06-22T13:27:45;34.60;81.70
51867;DHT22;52862;52.504;13.480;2023-06-22T13:30:13;34.60;81.60
51867;DHT22;52862;52.504;13.480;2023-06-22T13:32:41;34.60;81.10
51867;DHT22;52862;52.504;13.480;2023-06-22T13:35:09;34.40;81.20
51867;DHT22;52862;52.504;13.480;2023-06-22T13:37:37;34.50;80.50
51867;DHT22;52862;52.504;13.480;2023-06-22T13:40:04;34.70;79.90
51867;DHT22;52862;52.504;13.480;2023-06-22T13:42:32;34.60;79.70
51867;DHT22;52862;52.504;13.480;2023-06-22T13:44:59;34.40;79.80
51867;DHT22;52862;52.504;13.480;2023-06-22T13:47:27;34.40;79.50
51867;DHT22;52862;52.504;13.480;2023-06-22T13:49:56;34.40;80.40
51867;DHT22;52862;52.504;13.480;2023-06-22T13:52:24;34.30;79.60
51867;DHT22;52862;52.504;13.480;2023-06-22T13:54:50;34.00;80.80
51867;DHT22;52862;52.504;13.480;2023-06-22T13:57:17;34.00;80.30
51867;DHT22;52862;52.504;13.480;2023-06-22T13:59:44;34.10;80.40
51867;DHT22;52862;52.504;13.480;2023-06-22T14:02:11;33.90;80.40
51867;DHT22;52862;52.504;13.480;2023-06-22T14:04:38;33.90;79.90
51867;DHT22;52862;52.504;13.480;2023-06-22T14:07:06;34.30;79.00
51867;DHT22;52862;52.504;13.480;2023-06-22T14:09:33;34.40;78.40
51867;DHT22;52862;52.504;13.480;2023-06-22T14:12:03;34.60;80.00
51867;DHT22;52862;52.504;13.480;2023-06-22T14:14:31;34.60;78.10
51867;DHT22;52862;52.504;13.480;2023-06-22T14:16:59;34.80;78.40
51867;DHT22;52862;52.504;13.480;2023-06-22T14:19:26;36.70;74.20
51867;DHT22;52862;52.504;13.480;2023-06-22T14:21:54;38.30;70.00
51867;DHT22;52862;52.504;13.480;2023-06-22T14:24:20;39.10;67.20
51867;DHT22;52862;52.504;13.480;2023-06-22T14:26:51;40.20;65.40
51867;DHT22;52862;52.504;13.480;2023-06-22T14:29:18;40.90;63.50
51867;DHT22;52862;52.504;13.480;2023-06-22T14:31:45;41.90;60.80
51867;DHT22;52862;52.504;13.480;2023-06-22T14:34:13;42.50;59.00
51867;DHT22;52862;52.504;13.480;2023-06-22T14:36:40;43.10;57.80
51867;DHT22;52862;52.504;13.480;2023-06-22T14:39:07;43.60;56.50
51867;DHT22;52862;52.504;13.480;2023-06-22T14:41:34;43.30;55.90
51867;DHT22;52862;52.504;13.480;2023-06-22T14:44:01;43.30;55.40
51867;DHT22;52862;52.504;13.480;2023-06-22T14:46:28;43.50;55.20
51867;DHT22;52862;52.504;13.480;2023-06-22T14:48:55;43.70;54.60
51867;DHT22;52862;52.504;13.480;2023-06-22T14:51:22;43.70;54.30
51867;DHT22;52862;52.504;13.480;2023-06-22T14:53:49;43.10;54.30
51867;DHT22;52862;52.504;13.480;2023-06-22T14:56:16;43.20;53.70
51867;DHT22;52862;52.504;13.480;2023-06-22T14:58:43;43.00;53.90
51867;DHT22;52862;52.504;13.480;2023-06-22T15:01:11;43.20;53.40
51867;DHT22;52862;52.504;13.480;2023-06-22T15:03:38;43.70;52.00
51867;DHT22;52862;52.504;13.480;2023-06-22T15:06:05;43.90;52.40
51867;DHT22;52862;52.504;13.480;2023-06-22T15:08:33;44.00;52.30
51867;DHT22;52862;52.504;13.480;2023-06-22T15:11:00;43.30;52.10
51867;DHT22;52862;52.504;13.480;2023-06-22T15:13:30;43.50;52.40
51867;DHT22;52862;52.504;13.480;2023-06-22T15:16:00;43.90;51.40
51867;DHT22;52862;52.504;13.480;2023-06-22T15:18:27;44.10;51.50